Time;durP1;ratioP1;P1;durP2;ratioP2;P2;SDS_P1;SDS_P2;PMS_P1;PMS_P2;Temp;Humidity;BMP_temperature;BMP_pressure;BME280_temperature;BME280_humidity;BME280_pressure;Samples;Min_cycle;Max_cycle;Signal;HPM_P1;HPM_P2
2022/11/20 00:03:52;;;;;;;33.70;30.02;;;;;;;;;;10267243;28;20423;-61
2022/11/20 00:08:50;;;;;;;34.25;30.27;;;;;;;;;;10271005;28;20075;-62
2022/11/20 00:13:49;;;;;;;40.30;31.98;;;;;;;;;;10276098;28;20084;-62
2022/11/20 00:18:48;;;;;;;36.55;32.35;;;;;;;;;;10275413;28;20073;-60
2022/11/20 00:23:48;;;;;;;36.25;31.65;;;;;;;;;;10276793;28;20049;-61
2022/11/20 00:28:50;;;;;;;41.08;33.67;;;;;;;;;;10259499;28;20053;-61
2022/11/20 00:33:48;;;;;;;39.55;33.88;;;;;;;;;;10241366;28;20107;-61
2022/11/20 00:38:48;;;;;;;37.47;33.28;;;;;;;;;;10252122;28;20057;-61
2022/11/20 00:43:46;;;;;;;38.95;32.55;;;;;;;;;;10270048;28;20061;-59
2022/11/20 00:48:45;;;;;;;40.28;34.95;;;;;;;;;;10274951;28;20069;-62
2022/11/20 00:53:44;;;;;;;43.13;33.25;;;;;;;;;;10273873;28;20077;-60
2022/11/20 00:58:45;;;;;;;37.72;33.80;;;;;;;;;;10275028;28;20269;-60
2022/11/20 01:03:43;;;;;;;44.30;35.15;;;;;;;;;;10258706;28;20081;-61
2022/11/20 01:08:42;;;;;;;43.88;33.38;;;;;;;;;;10247754;28;20049;-61
2022/11/20 01:13:41;;;;;;;38.20;29.67;;;;;;;;;;10258179;28;20077;-61
2022/11/20 01:18:42;;;;;;;38.78;30.58;;;;;;;;;;10274305;28;20091;-61
2022/11/20 01:23:42;;;;;;;39.67;30.50;;;;;;;;;;10273526;28;20080;-61
2022/11/20 01:28:40;;;;;;;38.22;30.00;;;;;;;;;;10257056;28;20041;-60
2022/11/20 01:33:38;;;;;;;52.30;30.25;;;;;;;;;;10239785;28;20077;-61
2022/11/20 01:38:38;;;;;;;38.28;30.05;;;;;;;;;;10250706;28;20438;-61
2022/11/20 01:43:36;;;;;;;36.90;28.33;;;;;;;;;;10272812;28;20099;-61
2022/11/20 01:48:37;;;;;;;56.88;27.52;;;;;;;;;;10272226;28;20073;-61
2022/11/20 01:53:37;;;;;;;34.40;27.08;;;;;;;;;;10272894;28;20092;-60
2022/11/20 01:58:38;;;;;;;49.22;27.35;;;;;;;;;;10272141;28;20055;-60
2022/11/20 02:03:36;;;;;;;55.33;28.52;;;;;;;;;;10272178;28;20089;-61
2022/11/20 02:08:34;;;;;;;42.55;28.50;;;;;;;;;;10272112;28;20041;-61
2022/11/20 02:13:45;;;;;;;54.78;30.00;;;;;;;;;;10270431;28;20115;-60
2022/11/20 02:18:45;;;;;;;70.95;34.70;;;;;;;;;;10255044;28;20088;-60
2022/11/20 02:23:54;;;;;;;66.93;29.65;;;;;;;;;;10236069;28;20045;-61
2022/11/20 02:28:52;;;;;;;54.90;27.85;;;;;;;;;;10249655;28;20103;-60
2022/11/20 02:33:54;;;;;;;68.95;26.88;;;;;;;;;;10270857;28;20112;-60
2022/11/20 02:38:54;;;;;;;38.83;22.77;;;;;;;;;;10269054;28;20064;-60
2022/11/20 02:43:53;;;;;;;38.10;23.33;;;;;;;;;;10270946;28;20689;-60
2022/11/20 02:48:51;;;;;;;71.03;24.35;;;;;;;;;;10267826;28;20069;-62
2022/11/20 02:53:49;;;;;;;45.92;24.05;;;;;;;;;;10270323;28;20688;-61
2022/11/20 02:58:49;;;;;;;58.28;22.80;;;;;;;;;;10270109;28;20088;-62
2022/11/20 03:03:48;;;;;;;37.50;18.88;;;;;;;;;;10268618;28;20036;-60
2022/11/20 03:08:46;;;;;;;46.95;21.02;;;;;;;;;;10269056;28;20107;-61
2022/11/20 03:13:44;;;;;;;54.92;20.92;;;;;;;;;;10269792;28;20083;-60
2022/11/20 03:18:44;;;;;;;36.20;20.48;;;;;;;;;;10269971;28;20088;-60
2022/11/20 03:23:43;;;;;;;53.08;22.58;;;;;;;;;;10252691;28;20073;-61
2022/11/20 03:28:41;;;;;;;42.53;20.80;;;;;;;;;;10241124;28;20107;-60
2022/11/20 03:33:40;;;;;;;30.98;22.27;;;;;;;;;;10254941;28;20077;-61
2022/11/20 03:38:40;;;;;;;30.38;21.02;;;;;;;;;;10269031;28;20069;-60
2022/11/20 03:43:38;;;;;;;50.30;23.73;;;;;;;;;;10268616;28;20280;-60
2022/11/20 03:48:37;;;;;;;32.83;22.13;;;;;;;;;;10269642;28;20052;-61
2022/11/20 03:53:35;;;;;;;33.72;25.00;;;;;;;;;;10267858;28;20044;-61
2022/11/20 03:58:35;;;;;;;37.47;25.02;;;;;;;;;;10267259;28;20169;-61
2022/11/20 04:03:34;;;;;;;39.00;23.30;;;;;;;;;;10268792;28;20037;-61
2022/11/20 04:08:32;;;;;;;37.20;23.48;;;;;;;;;;10268670;28;20068;-61
2022/11/20 04:13:30;;;;;;;43.22;23.17;;;;;;;;;;10263861;28;20052;-61
2022/11/20 04:18:30;;;;;;;48.95;24.30;;;;;;;;;;10244837;28;20115;-61
2022/11/20 04:23:28;;;;;;;40.33;24.05;;;;;;;;;;10247664;28;20112;-61
2022/11/20 04:28:26;;;;;;;40.33;24.50;;;;;;;;;;10266486;28;20375;-61
2022/11/20 04:33:25;;;;;;;41.13;24.30;;;;;;;;;;10267531;28;20497;-61
2022/11/20 04:38:27;;;;;;;50.13;26.70;;;;;;;;;;10267685;28;20080;-61
2022/11/20 04:43:25;;;;;;;48.40;27.35;;;;;;;;;;10266939;28;20081;-62
2022/11/20 04:48:24;;;;;;;37.40;28.55;;;;;;;;;;10267012;28;20072;-61
2022/11/20 04:53:23;;;;;;;35.47;26.58;;;;;;;;;;10268029;28;20052;-61
2022/11/20 04:58:23;;;;;;;39.65;27.55;;;;;;;;;;10273603;28;20068;-60
2022/11/20 05:03:21;;;;;;;48.63;26.65;;;;;;;;;;10274052;28;20061;-60
2022/11/20 05:08:19;;;;;;;39.50;23.45;;;;;;;;;;10272537;28;20048;-60
2022/11/20 05:13:18;;;;;;;35.50;26.55;;;;;;;;;;10270790;28;20071;-62
2022/11/20 05:18:17;;;;;;;39.67;26.60;;;;;;;;;;10272109;28;20077;-60
2022/11/20 05:23:15;;;;;;;37.70;24.50;;;;;;;;;;10273514;28;20068;-60
2022/11/20 05:28:14;;;;;;;40.25;26.25;;;;;;;;;;10257642;28;20048;-61
2022/11/20 05:33:12;;;;;;;43.85;25.45;;;;;;;;;;10266775;28;20295;-60
2022/11/20 05:38:12;;;;;;;41.67;28.33;;;;;;;;;;10267302;28;20077;-61
2022/11/20 05:43:10;;;;;;;38.20;27.38;;;;;;;;;;10262976;28;20073;-61
2022/11/20 05:48:08;;;;;;;56.53;31.10;;;;;;;;;;10273939;28;20048;-61
2022/11/20 05:53:06;;;;;;;62.45;30.65;;;;;;;;;;10276517;28;20073;-60
2022/11/20 05:58:06;;;;;;;107.28;32.15;;;;;;;;;;10276105;28;20069;-60
2022/11/20 06:03:04;;;;;;;70.65;30.50;;;;;;;;;;10272753;28;20045;-60
2022/11/20 06:08:03;;;;;;;56.85;38.25;;;;;;;;;;10276262;28;20080;-59
2022/11/20 06:13:01;;;;;;;55.97;32.50;;;;;;;;;;10273321;28;20072;-60
2022/11/20 06:18:00;;;;;;;43.95;27.70;;;;;;;;;;10266295;28;20396;-62
2022/11/20 06:22:59;;;;;;;43.63;27.73;;;;;;;;;;10274346;28;20080;-60
2022/11/20 06:27:57;;;;;;;57.55;30.20;;;;;;;;;;10256787;28;20072;-60
2022/11/20 06:32:55;;;;;;;38.95;23.85;;;;;;;;;;10264206;28;20041;-61
2022/11/20 06:37:56;;;;;;;38.47;24.27;;;;;;;;;;10268975;28;20084;-61
2022/11/20 06:42:54;;;;;;;32.65;21.02;;;;;;;;;;10267436;28;20085;-61
2022/11/20 06:47:52;;;;;;;37.95;23.02;;;;;;;;;;10266769;28;20057;-61
2022/11/20 06:52:51;;;;;;;31.83;22.98;;;;;;;;;;10266575;28;20061;-60
2022/11/20 06:57:51;;;;;;;45.35;21.83;;;;;;;;;;10262124;28;20064;-61
2022/11/20 07:02:53;;;;;;;32.33;21.33;;;;;;;;;;10264144;28;20061;-60
2022/11/20 07:07:51;;;;;;;33.95;22.52;;;;;;;;;;10269137;28;20079;-60
2022/11/20 07:12:51;;;;;;;31.40;21.25;;;;;;;;;;10262567;28;20073;-61
2022/11/20 07:17:49;;;;;;;31.13;20.10;;;;;;;;;;10262206;28;20561;-61
2022/11/20 07:22:53;;;;;;;28.27;19.63;;;;;;;;;;10251237;28;20487;-58
2022/11/20 07:27:53;;;;;;;33.03;21.58;;;;;;;;;;10251414;28;20076;-60
2022/11/20 07:32:52;;;;;;;32.47;23.13;;;;;;;;;;10264776;28;20083;-59
2022/11/20 07:37:50;;;;;;;31.25;21.08;;;;;;;;;;10271169;28;20494;-58
2022/11/20 09:10:53;;;;;;;26.52;19.83;;;;;;;;;;10277910;28;20048;-60
2022/11/20 09:15:53;;;;;;;29.95;19.83;;;;;;;;;;10273962;28;20072;-61
2022/11/20 09:20:52;;;;;;;68.28;36.10;;;;;;;;;;10275757;28;20077;-59
2022/11/20 09:25:50;;;;;;;27.90;19.65;;;;;;;;;;10274671;28;20111;-60
2022/11/20 09:30:50;;;;;;;34.53;22.23;;;;;;;;;;10270631;28;20079;-60
2022/11/20 09:35:48;;;;;;;28.48;20.85;;;;;;;;;;10274560;28;20099;-60
2022/11/20 09:40:48;;;;;;;110.55;59.85;;;;;;;;;;10273438;28;20388;-60
2022/11/20 09:45:56;;;;;;;29.95;22.27;;;;;;;;;;10274135;28;20454;-59
2022/11/20 09:50:56;;;;;;;34.90;22.38;;;;;;;;;;10269955;28;20463;-61
2022/11/20 09:55:55;;;;;;;26.95;21.63;;;;;;;;;;10274875;28;20110;-59
2022/11/20 10:00:56;;;;;;;39.08;34.92;;;;;;;;;;10274067;28;20077;-60
2022/11/20 10:05:55;;;;;;;29.17;24.83;;;;;;;;;;10272768;28;20084;-62
2022/11/20 10:10:55;;;;;;;27.70;23.02;;;;;;;;;;10268249;28;20545;-61
2022/11/20 10:16:00;;;;;;;23.13;19.23;;;;;;;;;;10269655;28;20077;-62
2022/11/20 10:21:02;;;;;;;44.50;31.98;;;;;;;;;;10273694;28;20084;-62
2022/11/20 10:26:02;;;;;;;25.00;21.17;;;;;;;;;;10258873;28;20041;-62
2022/11/20 10:31:04;;;;;;;28.67;22.23;;;;;;;;;;10261365;28;20068;-61
2022/11/20 10:36:09;;;;;;;30.85;23.50;;;;;;;;;;10265897;28;20072;-60
2022/11/20 10:41:26;;;;;;;44.30;38.28;;;;;;;;;;10272731;28;20099;-60
2022/11/20 10:46:26;;;;;;;30.45;24.83;;;;;;;;;;10267776;28;20081;-61
2022/11/20 10:51:31;;;;;;;32.60;22.52;;;;;;;;;;10270793;28;20057;-61
2022/11/20 10:56:32;;;;;;;39.67;25.00;;;;;;;;;;10260368;28;20474;-62
2022/11/20 11:01:31;;;;;;;40.25;27.77;;;;;;;;;;10239708;28;20069;-61
2022/11/20 11:06:33;;;;;;;36.38;26.27;;;;;;;;;;10231352;28;20056;-61
2022/11/20 11:11:33;;;;;;;32.28;24.83;;;;;;;;;;10264027;28;20088;-61
2022/11/20 11:16:32;;;;;;;58.85;41.50;;;;;;;;;;10259002;28;20099;-61
2022/11/20 11:21:31;;;;;;;43.60;31.17;;;;;;;;;;10261348;28;20060;-62
2022/11/20 11:26:29;;;;;;;49.05;34.65;;;;;;;;;;10266066;28;20072;-62
2022/11/20 11:31:29;;;;;;;45.70;33.67;;;;;;;;;;10268423;28;20052;-62
2022/11/20 11:36:29;;;;;;;52.67;39.88;;;;;;;;;;10267651;28;20103;-61
2022/11/20 11:41:31;;;;;;;50.88;35.85;;;;;;;;;;10266384;28;20068;-60
2022/11/20 11:46:31;;;;;;;44.70;32.72;;;;;;;;;;10267282;28;20068;-60
2022/11/20 11:51:33;;;;;;;54.85;35.25;;;;;;;;;;10268173;28;20099;-60
2022/11/20 11:56:33;;;;;;;45.50;36.88;;;;;;;;;;10267890;28;20084;-61
2022/11/20 12:01:35;;;;;;;45.67;34.25;;;;;;;;;;10267845;28;20081;-61
2022/11/20 12:06:37;;;;;;;43.60;31.77;;;;;;;;;;10275344;28;20065;-61
2022/11/20 12:11:39;;;;;;;53.47;38.15;;;;;;;;;;10260200;28;20049;-61
2022/11/20 12:16:38;;;;;;;58.90;42.50;;;;;;;;;;10254362;28;20554;-63
2022/11/20 12:21:41;;;;;;;38.13;31.55;;;;;;;;;;10263301;28;20064;-61
2022/11/20 12:26:49;;;;;;;95.53;70.78;;;;;;;;;;10261707;28;20048;-63
2022/11/20 12:31:53;;;;;;;53.15;39.60;;;;;;;;;;10253798;28;20069;-62
2022/11/20 12:36:52;;;;;;;;;;;;;;;;;;10263385;28;20501;-61
2022/11/20 12:47:24;;;;;;;89.68;69.40;;;;;;;;;;10255266;28;20087;-61
2022/11/20 12:52:29;;;;;;;44.22;35.47;;;;;;;;;;10250441;28;20077;-61
2022/11/20 12:57:31;;;;;;;39.92;30.77;;;;;;;;;;10252443;28;20087;-61
2022/11/20 13:02:35;;;;;;;35.33;28.02;;;;;;;;;;10263078;28;20080;-61
2022/11/20 13:07:36;;;;;;;46.00;35.37;;;;;;;;;;10254780;28;20069;-62
2022/11/20 13:12:40;;;;;;;42.35;36.88;;;;;;;;;;10249492;28;20092;-61
2022/11/20 13:17:41;;;;;;;38.53;30.33;;;;;;;;;;10251550;28;20080;-62
2022/11/20 13:22:44;;;;;;;67.20;51.00;;;;;;;;;;10268035;28;20087;-61
2022/11/20 13:27:49;;;;;;;33.53;26.95;;;;;;;;;;10254830;28;20045;-62
2022/11/20 13:32:51;;;;;;;66.45;59.15;;;;;;;;;;10260015;28;20060;-60
2022/11/20 13:37:59;;;;;;;31.98;27.35;;;;;;;;;;10249668;28;20438;-62
2022/11/20 13:43:08;;;;;;;29.13;24.35;;;;;;;;;;10267098;28;20080;-63
2022/11/20 13:48:21;;;;;;;45.58;36.92;;;;;;;;;;10272724;28;20499;-61
2022/11/20 13:53:29;;;;;;;70.13;55.33;;;;;;;;;;10270540;28;20073;-62
2022/11/20 13:58:37;;;;;;;31.48;27.80;;;;;;;;;;10270829;28;20092;-61
2022/11/20 14:03:35;;;;;;;44.53;36.80;;;;;;;;;;10270265;28;20045;-61
2022/11/20 14:08:54;;;;;;;45.92;34.47;;;;;;;;;;10271770;28;20521;-61
2022/11/20 14:13:57;;;;;;;55.13;44.55;;;;;;;;;;10254831;28;20056;-61
2022/11/20 14:18:56;;;;;;;62.60;48.85;;;;;;;;;;10248965;28;20080;-61
2022/11/20 14:23:55;;;;;;;61.20;50.08;;;;;;;;;;10250220;28;20045;-59
2022/11/20 14:28:54;;;;;;;67.00;53.58;;;;;;;;;;10269149;28;20048;-61
2022/11/20 14:33:54;;;;;;;51.88;40.75;;;;;;;;;;10253449;28;20510;-61
2022/11/20 14:38:53;;;;;;;52.85;41.40;;;;;;;;;;10235706;28;20076;-61
2022/11/20 14:43:54;;;;;;;53.55;42.88;;;;;;;;;;10248630;28;20077;-59
2022/11/20 14:48:55;;;;;;;66.95;45.90;;;;;;;;;;10269698;28;20068;-62
2022/11/20 14:53:54;;;;;;;59.72;47.10;;;;;;;;;;10269598;28;20056;-62
2022/11/20 14:58:58;;;;;;;51.22;46.10;;;;;;;;;;10269331;28;20106;-61
2022/11/20 15:04:07;;;;;;;28.50;25.45;;;;;;;;;;10267297;28;20084;-60
2022/11/20 15:09:05;;;;;;;42.70;36.22;;;;;;;;;;10269751;28;20084;-61
2022/11/20 15:14:05;;;;;;;36.05;32.22;;;;;;;;;;10267267;28;20077;-60
2022/11/20 15:19:17;;;;;;;32.40;29.02;;;;;;;;;;10268715;28;20072;-63
2022/11/20 15:24:15;;;;;;;37.83;33.92;;;;;;;;;;10265915;28;20064;-62
2022/11/20 15:29:18;;;;;;;42.35;37.85;;;;;;;;;;10268457;28;20447;-61
2022/11/20 15:34:18;;;;;;;67.07;53.80;;;;;;;;;;10268189;28;20548;-62
2022/11/20 15:39:16;;;;;;;55.35;49.28;;;;;;;;;;10267312;28;20076;-61
2022/11/20 15:44:14;;;;;;;56.45;50.42;;;;;;;;;;10268131;28;20065;-61
2022/11/20 15:49:13;;;;;;;48.58;43.13;;;;;;;;;;10267890;28;20068;-60
2022/11/20 15:54:14;;;;;;;52.05;45.85;;;;;;;;;;10267949;28;20041;-61
2022/11/20 15:59:14;;;;;;;22.52;19.65;;;;;;;;;;10265146;28;20076;-62
2022/11/20 16:04:13;;;;;;;70.93;51.90;;;;;;;;;;10267537;28;20072;-62
2022/11/20 16:09:12;;;;;;;54.70;41.50;;;;;;;;;;10266411;28;20064;-60
2022/11/20 16:19:27;;;;;;;16.98;15.27;;;;;;;;;;10264262;28;20563;-62
2022/11/20 16:24:27;;;;;;;21.10;18.80;;;;;;;;;;10266937;28;20083;-61
2022/11/20 16:29:25;;;;;;;75.75;60.97;;;;;;;;;;10266532;28;20060;-61
2022/11/20 16:34:23;;;;;;;14.60;12.40;;;;;;;;;;10266800;28;20115;-61
2022/11/20 16:39:22;;;;;;;14.10;12.60;;;;;;;;;;10266995;28;20522;-60
2022/11/20 16:44:22;;;;;;;18.02;16.20;;;;;;;;;;10267363;28;20063;-61
2022/11/20 16:49:21;;;;;;;14.90;13.38;;;;;;;;;;10267391;28;20631;-62
2022/11/20 16:54:19;;;;;;;14.05;12.75;;;;;;;;;;10274502;28;20069;-60
2022/11/20 16:59:18;;;;;;;34.00;28.30;;;;;;;;;;10273623;28;20072;-61
2022/11/20 17:04:18;;;;;;;20.50;17.27;;;;;;;;;;10274012;28;20060;-61
2022/11/20 17:09:17;;;;;;;27.58;20.55;;;;;;;;;;10273529;28;20036;-61
2022/11/20 17:14:15;;;;;;;16.80;14.57;;;;;;;;;;10273941;28;20083;-61
2022/11/20 17:19:14;;;;;;;17.15;15.38;;;;;;;;;;10273480;28;20079;-62
2022/11/20 17:24:14;;;;;;;17.35;15.52;;;;;;;;;;10268412;28;20088;-60
2022/11/20 17:29:13;;;;;;;14.55;12.43;;;;;;;;;;10266495;28;20530;-62
2022/11/20 17:34:13;;;;;;;22.35;20.08;;;;;;;;;;10265950;28;20061;-62
2022/11/20 17:39:11;;;;;;;20.85;18.35;;;;;;;;;;10266537;28;20067;-62
2022/11/20 17:44:12;;;;;;;14.98;13.45;;;;;;;;;;10267504;28;20072;-62
2022/11/20 17:49:10;;;;;;;12.70;11.48;;;;;;;;;;10265122;28;20071;-61
2022/11/20 17:54:10;;;;;;;14.80;12.63;;;;;;;;;;10262216;28;20083;-61
2022/11/20 17:59:10;;;;;;;10.88;9.93;;;;;;;;;;10263005;28;20071;-61
2022/11/20 18:04:10;;;;;;;14.35;12.95;;;;;;;;;;10264771;28;20759;-61
2022/11/20 18:09:08;;;;;;;20.55;18.45;;;;;;;;;;10268154;28;20045;-61
2022/11/20 18:14:28;;;;;;;15.68;13.52;;;;;;;;;;10271154;28;20048;-61
2022/11/20 18:19:28;;;;;;;14.38;12.70;;;;;;;;;;10273244;28;20065;-61
2022/11/20 18:24:30;;;;;;;35.00;27.38;;;;;;;;;;10267752;28;20086;-62
2022/11/20 18:29:29;;;;;;;31.80;20.63;;;;;;;;;;10272559;28;20084;-62
2022/11/20 18:34:29;;;;;;;15.32;10.35;;;;;;;;;;10271507;28;20118;-62
2022/11/20 18:39:28;;;;;;;18.45;11.80;;;;;;;;;;10271575;28;20076;-61
2022/11/20 18:49:49;;;;;;;15.80;14.18;;;;;;;;;;10262809;28;20069;-61
2022/11/20 18:54:48;;;;;;;6.75;6.07;;;;;;;;;;10261661;28;20088;-62
2022/11/20 18:59:46;;;;;;;6.72;6.13;;;;;;;;;;10260264;28;20103;-61
2022/11/20 19:04:46;;;;;;;10.63;8.10;;;;;;;;;;10263805;28;20087;-60
2022/11/20 19:09:47;;;;;;;5.25;4.75;;;;;;;;;;10270199;28;20044;-61
2022/11/20 19:14:45;;;;;;;8.88;6.38;;;;;;;;;;10267081;28;20084;-60
2022/11/20 19:19:44;;;;;;;8.63;6.18;;;;;;;;;;10269027;28;20076;-61
2022/11/20 19:24:44;;;;;;;7.05;6.35;;;;;;;;;;10263961;28;20072;-62
2022/11/20 19:29:42;;;;;;;32.05;28.60;;;;;;;;;;10260419;28;20076;-61
2022/11/20 19:34:42;;;;;;;30.13;27.02;;;;;;;;;;10267834;28;20163;-61
2022/11/20 19:39:40;;;;;;;31.02;25.42;;;;;;;;;;10262653;28;20072;-62
2022/11/20 19:44:40;;;;;;;11.70;10.48;;;;;;;;;;10257898;28;20076;-62
2022/11/20 19:49:40;;;;;;;7.55;6.85;;;;;;;;;;10267732;28;20053;-61
2022/11/20 19:54:38;;;;;;;39.42;31.55;;;;;;;;;;10262579;28;20100;-61
2022/11/20 19:59:37;;;;;;;28.35;25.35;;;;;;;;;;10272109;28;20455;-62
2022/11/20 20:04:36;;;;;;;27.27;24.45;;;;;;;;;;10272365;28;20048;-61
2022/11/20 20:09:35;;;;;;;23.05;20.95;;;;;;;;;;10272149;28;20080;-61
2022/11/20 20:14:34;;;;;;;21.80;19.70;;;;;;;;;;10271910;28;20085;-60
2022/11/20 20:19:32;;;;;;;23.38;21.20;;;;;;;;;;10261677;28;20084;-61
2022/11/20 20:24:32;;;;;;;28.13;25.15;;;;;;;;;;10269152;28;20471;-62
2022/11/20 20:29:30;;;;;;;33.03;27.80;;;;;;;;;;10279568;28;20075;-61
2022/11/20 20:34:30;;;;;;;44.65;39.25;;;;;;;;;;10279177;28;20069;-61
2022/11/20 20:39:29;;;;;;;34.28;30.45;;;;;;;;;;10269631;28;20080;-61
2022/11/20 20:49:44;;;;;;;28.45;24.55;;;;;;;;;;10271852;28;20083;-61
2022/11/20 20:54:42;;;;;;;36.03;29.00;;;;;;;;;;10273616;28;20466;-61
2022/11/20 20:59:42;;;;;;;24.02;21.33;;;;;;;;;;10268627;28;20083;-61
2022/11/20 21:04:40;;;;;;;19.58;15.88;;;;;;;;;;10264781;28;20068;-61
2022/11/20 21:09:38;;;;;;;16.77;14.95;;;;;;;;;;10259461;28;20084;-61
2022/11/20 21:14:36;;;;;;;13.27;11.88;;;;;;;;;;10271469;28;20087;-61
2022/11/20 21:19:36;;;;;;;9.60;7.03;;;;;;;;;;10257222;28;20080;-61
2022/11/20 21:24:35;;;;;;;7.55;4.57;;;;;;;;;;10253579;28;20080;-61
2022/11/20 21:29:33;;;;;;;4.40;4.00;;;;;;;;;;10258270;28;20077;-61
2022/11/20 21:34:32;;;;;;;6.38;4.65;;;;;;;;;;10276712;28;20068;-62
2022/11/20 21:39:31;;;;;;;6.07;4.55;;;;;;;;;;10256238;28;20081;-61
2022/11/20 21:44:30;;;;;;;4.18;3.72;;;;;;;;;;10269242;28;20064;-62
2022/11/20 21:49:29;;;;;;;4.68;4.15;;;;;;;;;;10264585;28;20068;-62
2022/11/20 21:54:27;;;;;;;5.03;4.20;;;;;;;;;;10257029;28;20073;-61
2022/11/20 21:59:27;;;;;;;4.82;4.32;;;;;;;;;;10276131;28;20037;-62
2022/11/20 22:04:25;;;;;;;5.40;4.35;;;;;;;;;;10269581;28;20076;-61
2022/11/20 22:09:23;;;;;;;6.53;4.78;;;;;;;;;;10268842;28;20041;-61
2022/11/20 22:14:22;;;;;;;3.72;3.40;;;;;;;;;;10268504;28;20091;-61
2022/11/20 22:19:23;;;;;;;5.05;4.43;;;;;;;;;;10272332;28;20068;-61
2022/11/20 22:24:22;;;;;;;5.00;4.38;;;;;;;;;;10257513;28;20144;-60
2022/11/20 22:29:23;;;;;;;4.35;3.90;;;;;;;;;;10266047;28;20073;-62
2022/11/20 22:34:22;;;;;;;4.00;3.30;;;;;;;;;;10266767;28;20064;-62
2022/11/20 22:39:21;;;;;;;4.68;3.95;;;;;;;;;;10272351;28;20072;-61
2022/11/20 22:44:20;;;;;;;7.68;3.85;;;;;;;;;;10264832;28;20080;-62
2022/11/20 22:49:19;;;;;;;4.10;3.58;;;;;;;;;;10273280;28;20087;-62
2022/11/20 22:54:18;;;;;;;6.90;3.55;;;;;;;;;;10271666;28;20505;-62
2022/11/20 22:59:17;;;;;;;4.15;3.60;;;;;;;;;;10275071;28;20092;-61
2022/11/20 23:04:15;;;;;;;5.88;4.18;;;;;;;;;;10269092;28;20068;-61
2022/11/20 23:09:14;;;;;;;7.53;6.72;;;;;;;;;;10267188;28;20069;-62
2022/11/20 23:14:14;;;;;;;7.45;6.55;;;;;;;;;;10267482;28;20060;-61
2022/11/20 23:19:14;;;;;;;8.32;7.38;;;;;;;;;;10270610;28;20072;-61
2022/11/20 23:24:12;;;;;;;10.40;8.90;;;;;;;;;;10263954;28;20103;-61
2022/11/20 23:29:10;;;;;;;12.40;7.93;;;;;;;;;;10259082;28;20075;-59
2022/11/20 23:34:10;;;;;;;12.35;9.63;;;;;;;;;;10258496;28;20072;-62
2022/11/20 23:39:08;;;;;;;13.55;9.60;;;;;;;;;;10264719;28;20048;-62
2022/11/20 23:44:07;;;;;;;9.60;7.53;;;;;;;;;;10251021;28;20119;-61
2022/11/20 23:49:06;;;;;;;12.85;10.32;;;;;;;;;;10233439;28;20133;-61
2022/11/20 23:54:06;;;;;;;7.72;6.88;;;;;;;;;;10248860;28;20123;-62
2022/11/20 23:59:06;;;;;;;9.75;8.75;;;;;;;;;;10271878;28;20525;-61
